createdAt,value
2023-05-14T00:01:59.688Z,81.11
2023-05-14T00:05:09.576Z,81.24
2023-05-14T00:08:20.702Z,81.07
2023-05-14T00:11:29.199Z,80.99
2023-05-14T00:14:37.694Z,81.06
2023-05-14T00:17:46.187Z,81.37
2023-05-14T00:20:55.700Z,81.21
2023-05-14T00:24:04.419Z,80.89
2023-05-14T00:27:12.681Z,80.89
2023-05-14T00:30:21.350Z,80.78
2023-05-14T00:33:29.746Z,80.75
2023-05-14T00:36:52.005Z,80.56
2023-05-14T00:40:01.227Z,80.83
2023-05-14T00:43:09.742Z,80.29
2023-05-14T00:46:24.777Z,80.33
2023-05-14T00:49:40.719Z,80.41
2023-05-14T00:52:48.801Z,80.60
2023-05-14T00:56:03.725Z,80.60
2023-05-14T00:59:05.714Z,80.73
2023-05-14T01:02:20.815Z,80.12
2023-05-14T01:05:28.413Z,80.22
2023-05-14T01:08:56.750Z,80.21
2023-05-14T01:12:26.734Z,80.17
2023-05-14T01:15:44.783Z,80.24
2023-05-14T01:18:50.520Z,80.75
2023-05-14T01:22:05.775Z,80.24
2023-05-14T01:25:09.222Z,80.16
2023-05-14T01:28:29.716Z,80.68
2023-05-14T01:31:41.503Z,80.68
2023-05-14T01:34:59.456Z,81.09
2023-05-14T01:38:04.690Z,82.80
2023-05-14T01:41:24.187Z,83.25
2023-05-14T01:44:34.777Z,84.79
2023-05-14T01:47:43.417Z,84.91
2023-05-14T01:50:51.744Z,84.68
2023-05-14T01:54:07.022Z,84.76
2023-05-14T01:57:22.044Z,85.49
2023-05-14T02:00:25.081Z,85.32
2023-05-14T02:03:39.922Z,85.91
2023-05-14T02:06:41.683Z,86.05
2023-05-14T02:09:56.752Z,85.50
2023-05-14T02:12:58.445Z,84.75
2023-05-14T02:16:12.843Z,84.46
2023-05-14T02:19:14.619Z,84.89
2023-05-14T02:22:29.801Z,84.85
2023-05-14T02:25:37.791Z,84.71
2023-05-14T02:28:46.297Z,84.55
2023-05-14T02:32:00.908Z,83.82
2023-05-14T02:35:09.577Z,84.02
2023-05-14T02:38:25.777Z,83.98
2023-05-14T02:41:34.270Z,83.57
2023-05-14T02:44:42.801Z,83.63
2023-05-14T02:47:57.821Z,83.45
2023-05-14T02:51:06.760Z,83.04
2023-05-14T02:54:21.802Z,83.62
2023-05-14T02:57:29.761Z,83.37
2023-05-14T03:00:39.087Z,83.29
2023-05-14T03:03:47.792Z,83.39
2023-05-14T03:07:02.911Z,83.42
2023-05-14T03:10:12.111Z,82.66
2023-05-14T03:13:20.270Z,82.31
2023-05-14T03:16:34.875Z,82.00
2023-05-14T03:19:36.650Z,82.43
2023-05-14T03:22:53.078Z,82.50
2023-05-14T03:25:54.672Z,82.66
2023-05-14T03:29:10.083Z,82.08
2023-05-14T03:32:19.329Z,81.69
2023-05-14T03:35:40.824Z,81.61
2023-05-14T03:38:56.177Z,81.42
2023-05-14T03:42:10.827Z,80.80
2023-05-14T03:45:19.518Z,80.44
2023-05-14T03:48:33.903Z,80.83
2023-05-14T03:51:48.806Z,81.00
2023-05-14T03:54:57.313Z,80.48
2023-05-14T03:58:12.658Z,80.65
2023-05-14T04:01:14.902Z,79.94
2023-05-14T04:04:30.899Z,80.23
2023-05-14T04:07:38.818Z,79.69
2023-05-14T04:10:53.845Z,79.62
2023-05-14T04:14:08.833Z,79.70
2023-05-14T04:17:10.461Z,79.56
2023-05-14T04:20:24.959Z,79.61
2023-05-14T04:23:33.831Z,79.59
2023-05-14T04:26:42.332Z,79.31
2023-05-14T04:29:56.850Z,79.50
2023-05-14T04:33:11.826Z,79.36
2023-05-14T04:36:20.056Z,79.17
2023-05-14T04:39:34.885Z,79.12
2023-05-14T04:42:37.385Z,79.30
2023-05-14T04:45:52.141Z,79.35
2023-05-14T04:49:00.384Z,79.06
2023-05-14T04:52:09.137Z,78.80
2023-05-14T04:55:18.167Z,79.19
2023-05-14T04:58:34.732Z,78.93
2023-05-14T05:01:43.904Z,78.58
2023-05-14T05:04:58.900Z,78.42
2023-05-14T05:08:00.648Z,78.43
2023-05-14T05:11:14.875Z,78.75
2023-05-14T05:14:23.427Z,79.10
2023-05-14T05:17:32.929Z,79.13
2023-05-14T05:20:47.887Z,79.81
2023-05-14T05:23:50.191Z,79.16
2023-05-14T05:27:04.846Z,78.99
2023-05-14T05:30:07.200Z,79.72
2023-05-14T05:33:21.945Z,80.33
2023-05-14T05:36:36.871Z,79.98
2023-05-14T05:39:45.353Z,80.22
2023-05-14T05:42:53.872Z,80.50
2023-05-14T05:46:02.568Z,79.75
2023-05-14T05:49:10.925Z,80.78
2023-05-14T05:52:19.591Z,79.93
2023-05-14T05:55:27.903Z,80.35
2023-05-14T05:58:42.885Z,79.73
2023-05-14T06:01:51.412Z,80.03
2023-05-14T06:04:59.926Z,80.64
2023-05-14T06:08:08.427Z,80.34
2023-05-14T06:11:16.940Z,80.80
2023-05-14T06:14:31.868Z,80.93
2023-05-14T06:17:33.696Z,81.47
2023-05-14T06:20:49.211Z,81.29
2023-05-14T06:23:50.894Z,82.39
2023-05-14T06:27:05.877Z,81.36
2023-05-14T06:30:22.088Z,82.70
2023-05-14T06:33:36.955Z,82.66
2023-05-14T06:36:52.968Z,82.61
2023-05-14T06:40:12.196Z,83.20
2023-05-14T06:43:19.909Z,84.16
2023-05-14T06:46:34.882Z,85.04
2023-05-14T06:49:43.494Z,83.91
2023-05-14T06:52:57.949Z,83.95
2023-05-14T06:55:59.707Z,84.31
2023-05-14T06:59:13.932Z,82.89
2023-05-14T07:02:21.960Z,83.07
2023-05-14T07:05:30.476Z,83.30
2023-05-14T07:08:39.217Z,83.28
2023-05-14T07:11:47.454Z,82.66
2023-05-14T07:14:55.886Z,82.88
2023-05-14T07:18:05.613Z,82.47
2023-05-14T07:21:20.004Z,82.29
2023-05-14T07:24:28.592Z,80.55
2023-05-14T07:27:42.939Z,81.01
2023-05-14T07:30:51.059Z,81.17
2023-05-14T07:33:59.437Z,80.62
2023-05-14T07:37:13.938Z,80.72
2023-05-14T07:40:16.839Z,79.43
2023-05-14T07:43:32.953Z,79.08
2023-05-14T07:46:40.946Z,79.91
2023-05-14T07:49:56.631Z,79.00
2023-05-14T07:52:58.416Z,79.88
2023-05-14T07:56:13.937Z,80.24
2023-05-14T07:59:15.663Z,79.62
2023-05-14T08:02:30.394Z,80.25
2023-05-14T08:05:38.978Z,79.39
2023-05-14T08:08:53.942Z,80.49
2023-05-14T08:12:04.681Z,81.31
2023-05-14T08:15:13.939Z,79.73
2023-05-14T08:18:22.493Z,80.41
2023-05-14T08:21:43.995Z,81.80
2023-05-14T08:24:59.263Z,82.42
2023-05-14T08:28:08.130Z,82.15
2023-05-14T08:31:15.983Z,83.69
2023-05-14T08:34:24.735Z,83.33
2023-05-14T08:37:46.948Z,83.43
2023-05-14T08:40:56.997Z,83.03
2023-05-14T08:44:19.140Z,83.56
2023-05-14T08:47:33.490Z,84.33
2023-05-14T08:50:48.309Z,85.57
2023-05-14T08:53:57.061Z,85.02
2023-05-14T08:57:32.043Z,84.20
2023-05-14T09:00:33.861Z,84.24
2023-05-14T09:03:50.025Z,84.50
2023-05-14T09:07:01.952Z,84.10
2023-05-14T09:10:18.970Z,84.98
2023-05-14T09:13:33.994Z,85.19
2023-05-14T09:16:36.623Z,84.25
2023-05-14T09:19:53.116Z,85.70
2023-05-14T09:22:54.934Z,84.95
2023-05-14T09:26:12.313Z,84.95
2023-05-14T09:29:21.067Z,85.67
2023-05-14T09:32:36.116Z,86.55
2023-05-14T09:35:44.992Z,86.41
2023-05-14T09:39:03.379Z,85.59
2023-05-14T09:42:17.980Z,85.92
2023-05-14T09:45:19.719Z,85.42
2023-05-14T09:48:36.015Z,86.36
2023-05-14T09:51:51.037Z,86.77
2023-05-14T09:55:00.012Z,86.42
2023-05-14T09:58:08.738Z,86.90
2023-05-14T10:01:18.124Z,86.74
2023-05-14T10:04:26.717Z,85.97
2023-05-14T10:07:46.969Z,86.23
2023-05-14T10:10:58.549Z,87.62
2023-05-14T10:14:15.303Z,86.23
2023-05-14T10:17:33.014Z,87.32
2023-05-14T10:20:45.401Z,87.84
2023-05-14T10:23:53.864Z,87.23
2023-05-14T10:27:03.304Z,87.38
2023-05-14T10:30:12.363Z,86.54
2023-05-14T10:33:22.091Z,85.67
2023-05-14T10:36:47.811Z,87.27
2023-05-14T10:40:09.318Z,85.58
2023-05-14T10:43:11.197Z,85.64
2023-05-14T10:46:26.130Z,84.74
2023-05-14T10:49:45.117Z,86.91
2023-05-14T10:53:03.477Z,86.20
2023-05-14T10:56:20.086Z,86.43
2023-05-14T10:59:34.302Z,86.00
2023-05-14T11:02:46.592Z,85.39
2023-05-14T11:05:55.121Z,83.86
2023-05-14T11:09:13.074Z,85.69
2023-05-14T11:12:14.760Z,84.00
2023-05-14T11:15:31.062Z,84.76
2023-05-14T11:18:41.068Z,85.74
2023-05-14T11:21:57.078Z,85.95
2023-05-14T11:25:06.030Z,86.98
2023-05-14T11:28:14.528Z,87.69
2023-05-14T11:31:29.100Z,89.35
2023-05-14T11:34:47.119Z,88.13
2023-05-14T11:38:10.192Z,89.49
2023-05-14T11:41:14.669Z,90.36
2023-05-14T11:44:29.105Z,90.21
2023-05-14T11:47:44.183Z,90.32
2023-05-14T11:50:59.043Z,90.57
2023-05-14T11:54:00.690Z,91.14
2023-05-14T11:57:19.104Z,91.13
2023-05-14T12:00:34.110Z,90.78
2023-05-14T12:03:49.167Z,91.64
2023-05-14T12:07:06.081Z,91.18
2023-05-14T12:10:21.698Z,91.80
2023-05-14T12:13:27.175Z,91.23
2023-05-14T12:16:42.129Z,93.08
2023-05-14T12:20:04.003Z,92.09
2023-05-14T12:23:22.103Z,92.74
2023-05-14T12:26:40.078Z,94.02
2023-05-14T12:29:43.330Z,92.88
2023-05-14T12:32:58.917Z,93.56
2023-05-14T12:36:07.384Z,94.66
2023-05-14T12:39:28.086Z,93.69
2023-05-14T12:42:29.891Z,95.45
2023-05-14T12:45:44.122Z,95.58
2023-05-14T12:48:48.825Z,95.97
2023-05-14T12:55:33.085Z,97.01
2023-05-14T12:58:35.605Z,98.31
2023-05-14T13:01:50.105Z,98.55
2023-05-14T13:05:05.119Z,98.60
2023-05-14T13:08:13.142Z,98.56
2023-05-14T13:11:22.449Z,99.57
2023-05-14T13:14:37.253Z,99.55
2023-05-14T13:17:45.117Z,100.00
2023-05-14T13:21:00.145Z,100.00
2023-05-14T13:24:08.493Z,100.00
2023-05-14T13:27:16.612Z,100.00
2023-05-14T13:30:25.097Z,100.00
2023-05-14T13:33:36.201Z,100.00
2023-05-14T13:36:44.149Z,100.00
2023-05-14T13:39:59.106Z,100.00
2023-05-14T13:43:01.561Z,100.00
2023-05-14T13:46:16.363Z,100.00
2023-05-14T13:49:40.240Z,100.00
2023-05-14T13:52:48.314Z,100.00
2023-05-14T13:55:56.877Z,100.00
2023-05-14T13:59:11.178Z,100.00
2023-05-14T14:02:12.877Z,100.00
2023-05-14T14:05:27.338Z,100.00
2023-05-14T14:08:36.132Z,100.00
2023-05-14T14:11:51.197Z,100.00
2023-05-14T14:14:59.184Z,100.00
2023-05-14T14:18:07.673Z,100.00
2023-05-14T14:21:16.149Z,100.00
2023-05-14T14:24:31.154Z,100.00
2023-05-14T14:27:32.778Z,100.00
2023-05-14T14:30:47.175Z,100.00
2023-05-14T14:33:49.360Z,100.00
2023-05-14T14:37:04.168Z,100.00
2023-05-14T14:40:12.992Z,100.00
2023-05-14T14:43:21.240Z,100.00
2023-05-14T14:46:36.164Z,100.00
2023-05-14T14:49:37.977Z,100.00
2023-05-14T14:52:52.214Z,100.00
2023-05-14T14:55:53.892Z,100.00
2023-05-14T14:59:08.181Z,100.00
2023-05-14T15:02:19.961Z,100.00
2023-05-14T15:05:28.464Z,100.00
2023-05-14T15:08:37.354Z,100.00
2023-05-14T15:11:52.231Z,100.00
2023-05-14T15:15:01.065Z,100.00
2023-05-14T15:18:19.398Z,100.00
2023-05-14T15:21:34.266Z,100.00
2023-05-14T15:24:35.906Z,100.00
2023-05-14T15:27:50.197Z,100.00
2023-05-14T15:30:59.851Z,100.00
2023-05-14T15:34:14.151Z,100.00
2023-05-14T15:37:43.242Z,100.00
2023-05-14T15:40:44.924Z,100.00
2023-05-14T15:43:59.169Z,100.00
2023-05-14T15:47:00.784Z,100.00
2023-05-14T15:50:15.185Z,100.00
2023-05-14T15:53:23.306Z,100.00
2023-05-14T15:56:39.753Z,100.00
2023-05-14T15:59:41.378Z,100.00
2023-05-14T16:02:56.238Z,100.00
2023-05-14T16:05:57.982Z,100.00
2023-05-14T16:09:12.210Z,100.00
2023-05-14T16:12:20.210Z,100.00
2023-05-14T16:15:28.726Z,100.00
2023-05-14T16:18:43.266Z,100.00
2023-05-14T16:21:45.082Z,100.00
2023-05-14T16:25:03.286Z,100.00
2023-05-14T16:28:11.773Z,100.00
2023-05-14T16:31:20.217Z,100.00
2023-05-14T16:34:28.791Z,100.00
2023-05-14T16:37:37.180Z,100.00
2023-05-14T16:40:45.760Z,100.00
2023-05-14T16:44:00.269Z,100.00
2023-05-14T16:47:02.033Z,100.00
2023-05-14T16:50:16.203Z,100.00
2023-05-14T16:53:26.159Z,100.00
2023-05-14T16:56:41.446Z,100.00
2023-05-14T16:59:49.207Z,100.00
2023-05-14T17:02:57.802Z,100.00
2023-05-14T17:06:06.243Z,100.00
2023-05-14T17:09:15.550Z,100.00
2023-05-14T17:12:27.263Z,100.00
2023-05-14T17:15:36.069Z,100.00
2023-05-14T17:18:44.258Z,100.00
2023-05-14T17:21:59.247Z,100.00
2023-05-14T17:25:10.444Z,100.00
2023-05-14T17:28:25.337Z,100.00
2023-05-14T17:31:33.287Z,100.00
2023-05-14T17:34:41.837Z,100.00
2023-05-14T17:38:00.657Z,100.00
2023-05-14T17:41:10.750Z,100.00
2023-05-14T17:44:19.260Z,100.00
2023-05-14T17:47:34.333Z,100.00
2023-05-14T17:50:42.754Z,100.00
2023-05-14T17:53:51.237Z,100.00
2023-05-14T17:56:59.878Z,100.00
2023-05-14T18:00:08.316Z,100.00
2023-05-14T18:03:23.305Z,100.00
2023-05-14T18:06:25.478Z,100.00
2023-05-14T18:09:40.315Z,100.00
2023-05-14T18:12:42.260Z,100.00
2023-05-14T18:15:57.270Z,100.00
2023-05-14T18:19:05.302Z,100.00
2023-05-14T18:22:20.296Z,100.00
2023-05-14T18:25:28.583Z,100.00
2023-05-14T18:28:37.263Z,100.00
2023-05-14T18:31:52.285Z,100.00
2023-05-14T18:35:02.045Z,100.00
2023-05-14T18:38:17.276Z,100.00
2023-05-14T18:41:33.294Z,100.00
2023-05-14T18:44:36.396Z,100.00
2023-05-14T18:47:52.369Z,100.00
2023-05-14T18:50:54.461Z,100.00
2023-05-14T18:54:10.272Z,100.00
2023-05-14T19:00:51.682Z,100.00
2023-05-14T19:04:01.267Z,100.00
2023-05-14T19:07:18.599Z,100.00
2023-05-14T19:10:33.338Z,100.00
2023-05-14T19:13:42.219Z,100.00
2023-05-14T19:16:51.316Z,100.00
2023-05-14T19:20:00.265Z,100.00
2023-05-14T19:23:09.313Z,100.00
2023-05-14T19:26:24.278Z,100.00
2023-05-14T19:29:33.223Z,100.00
2023-05-14T19:32:41.563Z,100.00
2023-05-14T19:36:03.398Z,100.00
2023-05-14T19:39:18.628Z,100.00
2023-05-14T19:42:27.117Z,100.00
2023-05-14T19:45:42.353Z,100.00
2023-05-14T19:48:44.661Z,100.00
2023-05-14T19:51:59.329Z,100.00
2023-05-14T19:55:01.243Z,100.00
2023-05-14T19:58:16.315Z,100.00
2023-05-14T20:01:18.411Z,100.00
2023-05-14T20:04:33.506Z,100.00
2023-05-14T20:07:42.623Z,100.00
2023-05-14T20:10:51.022Z,100.00
2023-05-14T20:14:00.018Z,100.00
2023-05-14T20:17:14.375Z,100.00
2023-05-14T20:20:23.844Z,100.00
2023-05-14T20:23:32.335Z,100.00
2023-05-14T20:26:40.897Z,100.00
2023-05-14T20:29:56.058Z,100.00
2023-05-14T20:32:57.956Z,100.00
2023-05-14T20:36:13.448Z,100.00
2023-05-14T20:39:28.355Z,100.00
2023-05-14T20:42:37.680Z,100.00
2023-05-14T20:45:46.444Z,100.00
2023-05-14T20:48:56.739Z,100.00
2023-05-14T20:52:11.366Z,100.00
2023-05-14T20:55:13.385Z,100.00
2023-05-14T20:58:28.334Z,100.00
2023-05-14T21:01:43.431Z,100.00
2023-05-14T21:04:51.966Z,100.00
2023-05-14T21:08:06.824Z,100.00
2023-05-14T21:11:14.921Z,100.00
2023-05-14T21:14:29.651Z,100.00
2023-05-14T21:17:31.369Z,100.00
2023-05-14T21:20:47.629Z,100.00
2023-05-14T21:23:49.639Z,100.00
2023-05-14T21:27:05.227Z,100.00
2023-05-14T21:30:14.269Z,100.00
2023-05-14T21:33:22.430Z,100.00
2023-05-14T21:36:45.106Z,100.00
2023-05-14T21:39:59.397Z,100.00
2023-05-14T21:43:08.061Z,100.00
2023-05-14T21:46:23.110Z,100.00
2023-05-14T21:49:24.725Z,100.00
2023-05-14T21:52:39.423Z,100.00
2023-05-14T21:55:47.369Z,100.00
2023-05-14T21:59:02.394Z,100.00
2023-05-14T22:02:07.284Z,100.00
2023-05-14T22:05:22.530Z,100.00
2023-05-14T22:08:24.346Z,100.00
2023-05-14T22:11:39.780Z,100.00
2023-05-14T22:14:41.445Z,100.00
2023-05-14T22:17:56.452Z,100.00
2023-05-14T22:21:04.378Z,100.00
2023-05-14T22:24:12.890Z,100.00
2023-05-14T22:27:27.398Z,100.00
2023-05-14T22:30:29.054Z,100.00
2023-05-14T22:33:43.410Z,100.00
2023-05-14T22:36:51.430Z,100.00
2023-05-14T22:40:07.253Z,100.00
2023-05-14T22:43:15.522Z,100.00
2023-05-14T22:46:24.153Z,100.00
2023-05-14T22:49:32.382Z,100.00
2023-05-14T22:52:50.461Z,100.00
2023-05-14T22:55:52.312Z,100.00
2023-05-14T22:59:07.465Z,100.00
2023-05-14T23:02:09.289Z,100.00
2023-05-14T23:05:24.663Z,100.00
2023-05-14T23:08:33.422Z,100.00
2023-05-14T23:12:05.439Z,100.00
2023-05-14T23:15:14.814Z,100.00
2023-05-14T23:18:23.043Z,100.00
2023-05-14T23:21:31.446Z,100.00
2023-05-14T23:24:46.427Z,100.00
2023-05-14T23:27:54.994Z,100.00
2023-05-14T23:31:03.453Z,100.00
2023-05-14T23:34:12.065Z,100.00
2023-05-14T23:37:20.722Z,100.00
2023-05-14T23:40:35.433Z,100.00
2023-05-14T23:43:37.532Z,100.00
2023-05-14T23:46:52.529Z,100.00
2023-05-14T23:50:22.711Z,100.00
2023-05-14T23:53:27.377Z,100.00
2023-05-14T23:56:43.463Z,100.00
2023-05-14T23:59:45.193Z,100.00
